createdAt,value
2019-01-05T00:02:16.553Z,102424.79
2019-01-05T00:05:04.336Z,102422.59
2019-01-05T00:07:43.042Z,102426.17
2019-01-05T00:10:21.681Z,102421.04
2019-01-05T00:12:56.602Z,102428.27
2019-01-05T00:15:43.550Z,102427.13
2019-01-05T00:18:20.149Z,102433.66
2019-01-05T00:20:51.449Z,102428.29
2019-01-05T00:23:21.444Z,102427.95
2019-01-05T00:25:57.094Z,102424.03
2019-01-05T00:28:27.041Z,102418.52
2019-01-05T00:30:59.549Z,102417.22
2019-01-05T00:33:45.247Z,102415.73
2019-01-05T00:36:15.257Z,102402.08
2019-01-05T00:38:58.022Z,102396.53
2019-01-05T00:41:39.679Z,102395.13
2019-01-05T00:44:12.169Z,102399.52
2019-01-05T00:47:00.211Z,102395.07
2019-01-05T00:49:42.545Z,102397.06
2019-01-05T00:52:28.300Z,102398.06
2019-01-05T00:55:07.050Z,102396.13
2019-01-05T00:57:50.189Z,102392.53
2019-01-05T01:00:28.792Z,102394.30
2019-01-05T01:02:58.811Z,102385.98
2019-01-05T01:05:31.207Z,102380.82
2019-01-05T01:08:01.154Z,102373.23
2019-01-05T01:10:47.465Z,102375.44
2019-01-05T01:13:33.366Z,102380.66
2019-01-05T01:16:09.101Z,102377.89
2019-01-05T01:18:54.796Z,102378.14
2019-01-05T01:21:31.385Z,102381.69
2019-01-05T01:24:17.775Z,102376.47
2019-01-05T01:26:59.663Z,102370.61
2019-01-05T01:29:29.653Z,102376.97
2019-01-05T01:32:05.697Z,102369.93
2019-01-05T01:34:51.805Z,102368.47
2019-01-05T01:37:21.762Z,102362.98
2019-01-05T01:40:09.999Z,102366.53
2019-01-05T01:42:56.346Z,102365.17
2019-01-05T01:45:41.836Z,102361.05
2019-01-05T01:48:20.961Z,102352.16
2019-01-05T01:51:07.810Z,102350.69
2019-01-05T01:53:41.086Z,102345.93
2019-01-05T01:56:14.237Z,102342.59
2019-01-05T01:58:45.734Z,102339.14
2019-01-05T02:01:21.622Z,102332.08
2019-01-05T02:03:55.078Z,102333.76
2019-01-05T02:06:43.367Z,102325.91
2019-01-05T02:09:13.980Z,102322.86
2019-01-05T02:11:45.153Z,102319.78
2019-01-05T02:14:23.221Z,102324.11
2019-01-05T02:17:12.700Z,102315.33
2019-01-05T02:19:54.467Z,102307.17
2019-01-05T02:22:39.074Z,102305.70
2019-01-05T02:25:50.768Z,102311.41
2019-01-05T02:28:49.422Z,102297.49
2019-01-05T02:31:44.338Z,102295.06
2019-01-05T02:34:41.147Z,102295.47
2019-01-05T02:37:53.337Z,102288.81
2019-01-05T02:40:37.969Z,102289.37
2019-01-05T02:43:47.320Z,102293.23
2019-01-05T02:46:42.687Z,102288.18
2019-01-05T02:49:27.435Z,102295.55
2019-01-05T02:52:26.736Z,102272.92
2019-01-05T02:55:14.595Z,102268.92
2019-01-05T02:58:27.823Z,102257.63
2019-01-05T03:01:39.741Z,102267.70
2019-01-05T03:04:18.488Z,102257.23
2019-01-05T03:07:12.201Z,102251.41
2019-01-05T03:10:00.206Z,102255.09
2019-01-05T03:12:36.010Z,102254.92
2019-01-05T03:15:29.837Z,102251.98
2019-01-05T03:18:11.398Z,102262.12
2019-01-05T03:21:02.684Z,102262.12
2019-01-05T03:24:14.735Z,102260.81
2019-01-05T03:27:15.819Z,102252.97
2019-01-05T03:30:01.041Z,102250.02
2019-01-05T03:32:55.795Z,102245.53
2019-01-05T03:35:37.758Z,102239.16
2019-01-05T03:38:40.370Z,102230.31
2019-01-05T03:41:19.168Z,102221.78
2019-01-05T03:44:06.905Z,102215.92
2019-01-05T03:47:07.692Z,102197.98
2019-01-05T03:50:15.289Z,102203.61
2019-01-05T03:53:19.423Z,102211.19
2019-01-05T03:55:52.777Z,102205.32
2019-01-05T03:59:05.946Z,102196.09
2019-01-05T04:02:16.643Z,102191.60
2019-01-05T04:05:19.587Z,102178.98
2019-01-05T04:08:20.408Z,102181.41
2019-01-05T04:11:30.480Z,102179.33
2019-01-05T04:14:14.772Z,102170.10
2019-01-05T04:17:12.769Z,102174.77
2019-01-05T04:20:02.102Z,102171.14
2019-01-05T04:22:52.673Z,102165.91
2019-01-05T04:26:01.187Z,102162.45
2019-01-05T04:28:58.134Z,102161.44
2019-01-05T04:32:14.514Z,102147.96
2019-01-05T04:35:12.769Z,102154.97
2019-01-05T04:38:13.051Z,102145.08
2019-01-05T04:41:16.947Z,102126.36
2019-01-05T04:44:14.316Z,102119.75
2019-01-05T04:47:06.144Z,102124.64
2019-01-05T04:49:51.307Z,102129.30
2019-01-05T04:53:01.862Z,102127.27
2019-01-05T04:56:13.523Z,102113.89
2019-01-05T04:59:06.152Z,102108.55
2019-01-05T05:02:17.969Z,102104.45
2019-01-05T05:05:19.208Z,102103.45
2019-01-05T05:08:06.477Z,102110.75
2019-01-05T05:11:11.014Z,102108.03
2019-01-05T05:14:12.300Z,102106.65
2019-01-05T05:16:48.346Z,102110.58
2019-01-05T05:19:54.364Z,102099.90
2019-01-05T05:23:15.488Z,102097.77
2019-01-05T05:26:09.951Z,102097.77
2019-01-05T05:29:21.721Z,102095.37
2019-01-05T05:32:33.436Z,102092.28
2019-01-05T05:35:18.396Z,102085.80
2019-01-05T05:38:26.989Z,102084.02
2019-01-05T05:41:24.757Z,102086.02
2019-01-05T05:44:42.801Z,102085.38
2019-01-05T05:47:40.353Z,102087.13
2019-01-05T05:50:16.052Z,102095.27
2019-01-05T05:53:03.700Z,102098.94
2019-01-05T05:56:12.790Z,102089.96
2019-01-05T05:59:32.317Z,102087.63
2019-01-05T06:02:30.826Z,102096.33
2019-01-05T06:05:27.557Z,102095.02
2019-01-05T06:08:18.277Z,102085.67
2019-01-05T06:11:28.825Z,102082.47
2019-01-05T06:14:22.147Z,102074.14
2019-01-05T06:17:14.484Z,102082.58
2019-01-05T06:20:12.373Z,102074.42
2019-01-05T06:23:04.512Z,102071.36
2019-01-05T06:26:09.841Z,102063.76
2019-01-05T06:29:04.820Z,102081.08
2019-01-05T06:32:03.369Z,102073.11
2019-01-05T06:34:48.135Z,102088.75
2019-01-05T06:37:39.466Z,102090.06
2019-01-05T06:41:01.865Z,102093.34
2019-01-05T06:43:43.654Z,102103.34
2019-01-05T06:46:39.018Z,102098.10
2019-01-05T06:49:52.164Z,102095.48
2019-01-05T06:52:56.327Z,102102.80
2019-01-05T06:55:57.188Z,102104.55
2019-01-05T06:58:52.270Z,102096.50
2019-01-05T07:02:02.622Z,102107.85
2019-01-05T07:04:40.981Z,102112.22
2019-01-05T07:07:49.643Z,102112.04
2019-01-05T07:10:40.293Z,102111.97
2019-01-05T07:13:41.412Z,102115.97
2019-01-05T07:16:17.184Z,102119.35
2019-01-05T07:19:17.230Z,102124.12
2019-01-05T07:22:30.652Z,102114.84
2019-01-05T07:25:32.072Z,102123.28
2019-01-05T07:28:39.934Z,102131.14
2019-01-05T07:31:35.667Z,102137.04
2019-01-05T07:34:48.616Z,102135.08
2019-01-05T07:37:58.866Z,102143.59
2019-01-05T07:40:52.752Z,102138.16
2019-01-05T07:43:46.798Z,102145.84
2019-01-05T07:46:48.109Z,102153.30
2019-01-05T07:49:43.021Z,102156.33
2019-01-05T07:52:41.024Z,102166.80
2019-01-05T07:55:28.561Z,102162.77
2019-01-05T07:58:25.214Z,102170.99
2019-01-05T08:01:12.948Z,102168.55
2019-01-05T08:04:00.381Z,102167.83
2019-01-05T08:07:10.088Z,102165.86
2019-01-05T08:10:18.787Z,102168.66
2019-01-05T08:13:00.699Z,102167.17
2019-01-05T08:15:39.712Z,102170.99
2019-01-05T08:18:45.582Z,102172.23
2019-01-05T08:21:33.589Z,102174.02
2019-01-05T08:24:21.133Z,102172.05
2019-01-05T08:27:08.731Z,102178.86
2019-01-05T08:29:47.212Z,102177.18
2019-01-05T08:32:37.792Z,102179.44
2019-01-05T08:35:16.491Z,102184.57
2019-01-05T08:38:28.194Z,102177.36
2019-01-05T08:41:29.642Z,102182.53
2019-01-05T08:44:17.518Z,102175.80
2019-01-05T08:47:41.541Z,102187.59
2019-01-05T08:50:48.989Z,102184.97
2019-01-05T08:53:58.847Z,102183.91
2019-01-05T08:57:04.718Z,102173.83
2019-01-05T09:00:04.698Z,102174.48
2019-01-05T09:03:17.095Z,102172.52
2019-01-05T09:06:25.685Z,102165.77
2019-01-05T09:09:21.077Z,102169.70
2019-01-05T09:12:12.321Z,102172.87
2019-01-05T09:15:07.669Z,102165.95
2019-01-05T09:18:12.227Z,102164.28
2019-01-05T09:21:10.679Z,102164.17
2019-01-05T09:24:15.403Z,102164.54
2019-01-05T09:27:24.536Z,102170.06
2019-01-05T09:30:17.158Z,102174.47
2019-01-05T09:33:28.744Z,102169.77
2019-01-05T09:36:04.253Z,102176.98
2019-01-05T09:38:56.336Z,102173.91
2019-01-05T09:41:48.423Z,102177.19
2019-01-05T09:44:55.800Z,102179.15
2019-01-05T09:48:02.841Z,102176.23
2019-01-05T09:50:47.466Z,102187.09
2019-01-05T09:53:55.150Z,102177.44
2019-01-05T09:56:53.608Z,102185.31
2019-01-05T10:00:20.804Z,102182.61
2019-01-05T10:03:42.907Z,102181.58
2019-01-05T10:06:39.788Z,102177.91
2019-01-05T10:09:18.659Z,102181.28
2019-01-05T10:12:21.669Z,102182.87
2019-01-05T10:15:14.969Z,102192.05
2019-01-05T10:18:22.578Z,102186.50
2019-01-05T10:21:40.543Z,102188.39
2019-01-05T10:25:02.321Z,102183.34
2019-01-05T10:28:08.256Z,102183.89
2019-01-05T10:31:12.839Z,102179.02
2019-01-05T10:34:35.525Z,102189.33
2019-01-05T10:37:30.969Z,102187.65
2019-01-05T10:40:45.679Z,102180.32
2019-01-05T10:43:39.476Z,102181.85
2019-01-05T10:46:42.427Z,102175.19
2019-01-05T10:49:49.626Z,102177.51
2019-01-05T10:52:44.801Z,102171.71
2019-01-05T10:55:47.745Z,102165.44
2019-01-05T10:58:54.906Z,102160.72
2019-01-05T11:01:58.788Z,102162.13
2019-01-05T11:04:56.049Z,102157.63
2019-01-05T11:07:46.986Z,102150.98
2019-01-05T11:10:42.306Z,102143.19
2019-01-05T11:14:04.221Z,102153.50
2019-01-05T11:16:48.870Z,102153.69
2019-01-05T11:19:33.430Z,102146.66
2019-01-05T11:22:33.217Z,102141.89
2019-01-05T11:25:35.300Z,102140.74
2019-01-05T11:28:33.693Z,102139.16
2019-01-05T11:31:27.888Z,102135.86
2019-01-05T11:34:35.490Z,102133.80
2019-01-05T11:37:29.040Z,102133.67
2019-01-05T11:40:32.751Z,102129.27
2019-01-05T11:43:20.531Z,102128.59
2019-01-05T11:46:21.507Z,102123.94
2019-01-05T11:49:06.440Z,102110.42
2019-01-05T11:52:16.573Z,102113.24
2019-01-05T11:55:29.945Z,102111.73
2019-01-05T11:58:42.399Z,102110.66
2019-01-05T12:01:40.622Z,102111.41
2019-01-05T12:04:57.119Z,102103.34
2019-01-05T12:08:06.137Z,102103.38
2019-01-05T12:11:15.217Z,102109.30
2019-01-05T12:14:26.134Z,102100.87
2019-01-05T12:17:32.036Z,102100.39
2019-01-05T12:20:27.382Z,102102.11
2019-01-05T12:23:16.615Z,102105.22
2019-01-05T12:25:52.618Z,102101.95
2019-01-05T12:29:10.664Z,102094.39
2019-01-05T12:32:27.140Z,102093.60
2019-01-05T12:35:23.997Z,102097.45
2019-01-05T12:38:29.327Z,102096.66
2019-01-05T12:41:02.455Z,102096.97
2019-01-05T12:43:47.339Z,102097.69
2019-01-05T12:46:47.418Z,102095.94
2019-01-05T12:49:48.133Z,102088.27
2019-01-05T12:52:57.495Z,102094.52
2019-01-05T12:56:15.185Z,102088.19
2019-01-05T12:59:12.871Z,102089.62
2019-01-05T13:02:03.874Z,102097.94
2019-01-05T13:05:05.442Z,102100.12
2019-01-05T13:07:50.305Z,102093.36
2019-01-05T13:11:02.197Z,102095.52
2019-01-05T13:13:50.147Z,102093.84
2019-01-05T13:16:29.204Z,102098.25
2019-01-05T13:19:19.785Z,102103.02
2019-01-05T13:22:24.589Z,102099.56
2019-01-05T13:25:36.513Z,102112.13
2019-01-05T13:28:44.981Z,102110.81
2019-01-05T13:31:27.606Z,102110.17
2019-01-05T13:34:47.204Z,102114.22
2019-01-05T13:37:53.014Z,102118.27
2019-01-05T13:40:40.878Z,102120.59
2019-01-05T13:43:44.969Z,102124.80
2019-01-05T13:46:35.839Z,102133.20
2019-01-05T13:49:41.849Z,102130.69
2019-01-05T13:52:50.387Z,102136.33
2019-01-05T13:55:23.488Z,102137.95
2019-01-05T13:57:56.680Z,102133.62
2019-01-05T14:00:26.679Z,102138.39
2019-01-05T14:02:58.272Z,102138.15
2019-01-05T14:05:34.557Z,102140.38
2019-01-05T14:08:16.616Z,102139.84
2019-01-05T14:11:02.541Z,102140.12
2019-01-05T14:13:38.803Z,102139.26
2019-01-05T14:16:26.969Z,102142.45
2019-01-05T14:19:08.710Z,102141.89
2019-01-05T14:21:55.078Z,102151.43
2019-01-05T14:24:27.726Z,102148.64
2019-01-05T14:27:03.083Z,102157.34
2019-01-05T14:29:41.949Z,102156.78
2019-01-05T14:32:23.439Z,102152.85
2019-01-05T14:35:09.740Z,102157.62
2019-01-05T14:37:48.145Z,102159.05
2019-01-05T14:40:34.285Z,102166.83
2019-01-05T14:43:19.006Z,102165.91
2019-01-05T14:45:49.214Z,102170.28
2019-01-05T14:48:22.059Z,102173.02
2019-01-05T14:51:08.337Z,102177.51
2019-01-05T14:53:41.259Z,102174.44
2019-01-05T14:56:13.898Z,102183.15
2019-01-05T14:58:59.716Z,102176.67
2019-01-05T15:01:29.682Z,102186.05
2019-01-05T15:04:24.266Z,102179.88
2019-01-05T15:07:03.078Z,102183.70
2019-01-05T15:09:48.184Z,102188.47
2019-01-05T15:12:35.984Z,102191.68
2019-01-05T15:15:11.578Z,102191.77
2019-01-05T15:17:41.528Z,102194.39
2019-01-05T15:20:17.238Z,102199.66
2019-01-05T15:22:56.246Z,102192.73
2019-01-05T15:25:26.173Z,102188.52
2019-01-05T15:28:12.038Z,102195.54
2019-01-05T15:30:53.952Z,102189.53
2019-01-05T15:33:39.874Z,102187.69
2019-01-05T15:36:09.872Z,102192.92
2019-01-05T15:38:57.919Z,102191.98
2019-01-05T15:41:27.849Z,102187.94
2019-01-05T15:43:57.771Z,102190.67
2019-01-05T15:46:42.613Z,102193.95
2019-01-05T15:49:23.009Z,102193.11
2019-01-05T15:52:04.789Z,102194.21
2019-01-05T15:54:43.805Z,102187.48
2019-01-05T15:57:28.592Z,102189.91
2019-01-05T16:00:07.339Z,102187.77
2019-01-05T16:02:39.705Z,102192.53
2019-01-05T16:05:21.448Z,102190.56
2019-01-05T16:08:03.314Z,102195.98
2019-01-05T16:10:33.498Z,102189.91
2019-01-05T16:13:21.813Z,102193.95
2019-01-05T16:15:57.598Z,102192.17
2019-01-05T16:18:43.692Z,102199.56
2019-01-05T16:21:16.254Z,102202.19
2019-01-05T16:23:51.666Z,102202.30
2019-01-05T16:26:21.855Z,102201.71
2019-01-05T16:29:06.603Z,102206.01
2019-01-05T16:31:52.508Z,102204.91
2019-01-05T16:34:25.167Z,102207.97
2019-01-05T16:36:57.798Z,102208.45
2019-01-05T16:39:27.763Z,102211.47
2019-01-05T16:42:00.482Z,102216.97
2019-01-05T16:44:30.399Z,102215.58
2019-01-05T16:47:00.344Z,102211.83
2019-01-05T16:49:30.284Z,102210.78
2019-01-05T16:52:06.189Z,102210.23
2019-01-05T16:54:51.775Z,102212.02
2019-01-05T16:57:37.723Z,102215.29
2019-01-05T17:00:24.648Z,102217.55
2019-01-05T17:02:54.844Z,102211.83
2019-01-05T17:05:41.081Z,102211.06
2019-01-05T17:08:27.962Z,102209.94
2019-01-05T17:11:15.822Z,102211.17
2019-01-05T17:13:57.527Z,102205.09
2019-01-05T17:16:43.672Z,102209.58
2019-01-05T17:19:19.198Z,102214.16
2019-01-05T17:22:05.186Z,102218.45
2019-01-05T17:24:35.140Z,102217.08
2019-01-05T17:27:22.980Z,102213.14
2019-01-05T17:29:55.965Z,102210.41
2019-01-05T17:32:41.588Z,102215.19
2019-01-05T17:35:14.235Z,102211.65
2019-01-05T17:37:46.892Z,102206.12
2019-01-05T17:40:33.213Z,102215.11
2019-01-05T17:43:09.075Z,102209.28
2019-01-05T17:45:55.274Z,102206.01
2019-01-05T17:48:27.905Z,102206.95
2019-01-05T17:51:12.885Z,102201.23
2019-01-05T17:53:42.846Z,102209.76
2019-01-05T17:56:27.777Z,102204.44
2019-01-05T17:58:57.720Z,102213.51
2019-01-05T18:01:42.700Z,102209.03
2019-01-05T18:04:24.640Z,102206.41
2019-01-05T18:07:10.770Z,102203.39
2019-01-05T18:09:55.803Z,102205.17
2019-01-05T18:12:34.435Z,102204.98
2019-01-05T18:15:07.284Z,102210.99
2019-01-05T18:17:39.935Z,102209.76
2019-01-05T18:20:12.596Z,102212.30
2019-01-05T18:22:54.502Z,102204.70
2019-01-05T18:25:39.561Z,102210.34
2019-01-05T18:28:12.180Z,102210.34
2019-01-05T18:30:58.029Z,102209.39
2019-01-05T18:33:43.703Z,102211.07
2019-01-05T18:36:25.948Z,102208.84
2019-01-05T18:39:04.600Z,102208.08
2019-01-05T18:41:49.586Z,102212.38
2019-01-05T18:44:19.537Z,102217.80
2019-01-05T18:46:52.175Z,102213.69
2019-01-05T18:49:22.085Z,102218.49
2019-01-05T18:52:04.127Z,102224.17
2019-01-05T18:54:34.047Z,102221.48
2019-01-05T18:57:15.924Z,102226.91
2019-01-05T18:59:57.601Z,102219.69
2019-01-05T19:02:42.673Z,102221.11
2019-01-05T19:05:12.576Z,102223.81
2019-01-05T19:07:48.450Z,102224.65
2019-01-05T19:10:29.923Z,102234.77
2019-01-05T19:13:00.146Z,102232.62
2019-01-05T19:15:38.825Z,102217.17
2019-01-05T19:18:17.670Z,102214.08
2019-01-05T19:20:47.613Z,102219.98
2019-01-05T19:23:26.202Z,102226.35
2019-01-05T19:25:56.202Z,102221.95
2019-01-05T19:28:26.148Z,102223.63
2019-01-05T19:30:56.066Z,102220.17
2019-01-05T19:33:41.919Z,102229.52
2019-01-05T19:36:14.347Z,102227.38
2019-01-05T19:38:48.440Z,102231.31
2019-01-05T19:41:34.403Z,102227.85
2019-01-05T19:44:13.056Z,102234.01
2019-01-05T19:47:00.843Z,102233.09
2019-01-05T19:49:48.403Z,102225.96
2019-01-05T19:52:18.316Z,102230.08
2019-01-05T19:54:48.241Z,102229.42
2019-01-05T19:57:23.651Z,102227.45
2019-01-05T20:00:05.328Z,102226.54
2019-01-05T20:02:41.206Z,102227.85
2019-01-05T20:05:11.222Z,102227.85
2019-01-05T20:07:43.943Z,102235.79
2019-01-05T20:10:29.528Z,102240.74
2019-01-05T20:13:11.577Z,102244.13
2019-01-05T20:15:57.179Z,102243.66
2019-01-05T20:18:43.284Z,102246.09
2019-01-05T20:21:21.746Z,102242.64
2019-01-05T20:24:03.468Z,102238.99
2019-01-05T20:26:39.351Z,102232.98
2019-01-05T20:29:17.752Z,102239.83
2019-01-05T20:31:50.628Z,102249.19
2019-01-05T20:34:36.739Z,102241.03
2019-01-05T20:37:15.261Z,102245.80
2019-01-05T20:40:03.544Z,102244.78
2019-01-05T20:42:49.231Z,102237.21
2019-01-05T20:45:21.860Z,102236.84
2019-01-05T20:47:54.443Z,102244.13
2019-01-05T20:50:40.465Z,102249.73
2019-01-05T20:53:19.472Z,102248.64
2019-01-05T20:55:49.676Z,102238.16
2019-01-05T20:58:31.365Z,102237.57
2019-01-05T21:01:16.634Z,102240.48
2019-01-05T21:03:49.431Z,102241.40
2019-01-05T21:06:22.017Z,102250.39
2019-01-05T21:08:57.799Z,102240.30
2019-01-05T21:11:27.732Z,102239.36
2019-01-05T21:14:06.059Z,102233.17
2019-01-05T21:16:39.223Z,102242.64
2019-01-05T21:19:23.918Z,102241.22
2019-01-05T21:22:05.986Z,102239.91
2019-01-05T21:24:52.104Z,102241.61
2019-01-05T21:27:30.884Z,102243.47
2019-01-05T21:30:03.223Z,102244.13
2019-01-05T21:32:36.158Z,102246.02
2019-01-05T21:35:16.226Z,102249.55
2019-01-05T21:37:51.748Z,102249.27
2019-01-05T21:40:37.154Z,102249.19
2019-01-05T21:43:13.046Z,102251.52
2019-01-05T21:45:59.157Z,102256.03
2019-01-05T21:48:44.873Z,102258.55
2019-01-05T21:51:14.792Z,102262.01
2019-01-05T21:53:44.730Z,102255.27
2019-01-05T21:56:14.910Z,102261.71
2019-01-05T21:59:00.752Z,102264.99
2019-01-05T22:01:30.685Z,102268.48
2019-01-05T22:04:03.103Z,102271.76
2019-01-05T22:06:38.524Z,102270.23
2019-01-05T22:09:12.193Z,102266.70
2019-01-05T22:11:42.137Z,102267.91
2019-01-05T22:14:27.737Z,102276.35
2019-01-05T22:17:13.772Z,102270.53
2019-01-05T22:19:43.705Z,102271.11
2019-01-05T22:22:16.611Z,102273.51
2019-01-05T22:25:02.163Z,102270.89
2019-01-05T22:27:32.426Z,102264.63
2019-01-05T22:30:17.137Z,102267.06
2019-01-05T22:32:47.089Z,102268.38
2019-01-05T22:35:17.255Z,102266.22
2019-01-05T22:37:49.875Z,102263.89
2019-01-05T22:40:31.775Z,102271.76
2019-01-05T22:43:10.182Z,102264.34
2019-01-05T22:45:42.526Z,102266.52
2019-01-05T22:48:18.390Z,102261.82
2019-01-05T22:50:54.220Z,102260.52
2019-01-05T22:53:24.409Z,102259.67
2019-01-05T22:56:03.455Z,102253.66
2019-01-05T22:58:36.326Z,102255.45
2019-01-05T23:01:12.271Z,102257.70
2019-01-05T23:03:54.305Z,102256.28
2019-01-05T23:06:33.205Z,102264.52
2019-01-05T23:09:03.390Z,102266.65
2019-01-05T23:11:49.556Z,102265.73
2019-01-05T23:14:31.592Z,102273.67
2019-01-05T23:17:10.474Z,102271.81
2019-01-05T23:19:43.311Z,102276.69
2019-01-05T23:22:19.103Z,102272.55
2019-01-05T23:24:51.825Z,102282.42
2019-01-05T23:27:27.304Z,102275.86
2019-01-05T23:30:13.159Z,102276.97
2019-01-05T23:32:52.278Z,102285.22
2019-01-05T23:35:38.178Z,102265.27
2019-01-05T23:38:14.102Z,102261.33
2019-01-05T23:40:44.053Z,102267.77
2019-01-05T23:43:30.123Z,102270.22
2019-01-05T23:46:16.282Z,102264.86
2019-01-05T23:48:46.443Z,102267.11
2019-01-05T23:51:32.221Z,102268.89
2019-01-05T23:54:07.909Z,102267.30
2019-01-05T23:56:40.490Z,102269.19
2019-01-05T23:59:26.503Z,102274.90
